createdAt,value
2019-02-26T00:00:26.174Z,0.98
2019-02-26T00:00:58.674Z,0.99
2019-02-26T00:01:30.847Z,1.00
2019-02-26T00:02:02.716Z,1.07
2019-02-26T00:02:34.075Z,1.07
2019-02-26T00:03:05.299Z,1.08
2019-02-26T00:03:36.515Z,1.17
2019-02-26T00:04:07.724Z,1.19
2019-02-26T00:04:39.055Z,1.18
2019-02-26T00:05:10.275Z,1.17
2019-02-26T00:05:41.486Z,1.19
2019-02-26T00:06:12.738Z,1.22
2019-02-26T00:06:47.128Z,1.24
2019-02-26T00:07:18.846Z,1.28
2019-02-26T00:07:51.558Z,1.30
2019-02-26T00:08:24.608Z,1.34
2019-02-26T00:08:58.224Z,1.42
2019-02-26T00:09:30.490Z,1.43
2019-02-26T00:10:04.421Z,1.43
2019-02-26T00:10:37.132Z,1.42
2019-02-26T00:11:08.507Z,1.43
2019-02-26T00:11:40.473Z,1.43
2019-02-26T00:12:11.667Z,1.45
2019-02-26T00:12:42.969Z,1.44
2019-02-26T00:13:14.173Z,1.48
2019-02-26T00:13:45.388Z,1.51
2019-02-26T00:14:17.849Z,1.55
2019-02-26T00:14:50.179Z,1.64
2019-02-26T00:15:22.660Z,1.67
2019-02-26T00:15:53.887Z,1.68
2019-02-26T00:16:25.146Z,1.68
2019-02-26T00:16:56.349Z,1.66
2019-02-26T00:17:27.558Z,1.64
2019-02-26T00:17:58.827Z,1.62
2019-02-26T00:18:30.033Z,1.63
2019-02-26T00:19:04.622Z,1.63
2019-02-26T00:19:34.238Z,1.62
2019-02-26T00:20:05.796Z,1.65
2019-02-26T00:20:39.642Z,1.65
2019-02-26T00:21:11.336Z,1.67
2019-02-26T00:21:43.119Z,1.66
2019-02-26T00:22:15.895Z,1.63
2019-02-26T00:22:48.408Z,1.64
2019-02-26T00:23:21.486Z,1.62
2019-02-26T00:23:53.145Z,1.63
2019-02-26T00:24:24.442Z,1.61
2019-02-26T00:24:55.641Z,1.62
2019-02-26T00:25:26.869Z,1.62
2019-02-26T00:25:58.076Z,1.62
2019-02-26T00:26:29.287Z,1.63
2019-02-26T00:27:01.465Z,1.59
2019-02-26T00:27:35.147Z,1.60
2019-02-26T00:28:06.477Z,1.60
2019-02-26T00:28:39.091Z,1.60
2019-02-26T00:29:10.623Z,1.60
2019-02-26T00:29:41.812Z,1.61
2019-02-26T00:30:14.325Z,1.60
2019-02-26T00:30:45.979Z,1.63
2019-02-26T00:31:19.135Z,1.62
2019-02-26T00:31:50.777Z,1.62
2019-02-26T00:32:23.193Z,1.62
2019-02-26T00:32:55.436Z,1.62
2019-02-26T00:33:28.953Z,1.60
2019-02-26T00:34:00.295Z,1.62
2019-02-26T00:34:32.345Z,1.65
2019-02-26T00:35:04.422Z,1.66
2019-02-26T00:35:35.646Z,1.66
2019-02-26T00:36:08.924Z,1.63
2019-02-26T00:36:39.832Z,1.65
2019-02-26T00:37:11.073Z,1.63
2019-02-26T00:37:44.050Z,1.65
2019-02-26T00:38:16.038Z,1.63
2019-02-26T00:38:48.155Z,1.63
2019-02-26T00:39:20.612Z,1.63
2019-02-26T00:39:54.176Z,1.63
2019-02-26T00:40:25.354Z,1.61
2019-02-26T00:40:57.814Z,1.63
2019-02-26T00:41:31.265Z,1.64
2019-02-26T00:42:03.219Z,1.71
2019-02-26T00:42:36.038Z,1.74
2019-02-26T00:43:07.477Z,1.73
2019-02-26T00:43:38.683Z,1.71
2019-02-26T00:44:09.886Z,1.70
2019-02-26T00:44:41.147Z,1.69
2019-02-26T00:45:12.329Z,1.68
2019-02-26T00:45:43.587Z,1.66
2019-02-26T00:46:14.793Z,1.63
2019-02-26T00:46:45.997Z,1.65
2019-02-26T00:47:17.192Z,1.64
2019-02-26T00:47:48.411Z,1.66
2019-02-26T00:48:19.612Z,1.63
2019-02-26T00:48:50.835Z,1.59
2019-02-26T00:49:23.704Z,1.61
2019-02-26T00:49:55.053Z,1.61
2019-02-26T00:50:27.991Z,1.60
2019-02-26T00:51:01.048Z,1.58
2019-02-26T00:51:32.162Z,1.56
2019-02-26T00:52:04.016Z,1.55
2019-02-26T00:52:37.452Z,1.53
2019-02-26T00:53:09.320Z,1.51
2019-02-26T00:53:40.538Z,1.48
2019-02-26T00:54:11.741Z,1.49
2019-02-26T00:54:43.025Z,1.49
2019-02-26T00:55:14.249Z,1.50
2019-02-26T00:55:45.456Z,1.48
2019-02-26T00:56:16.666Z,1.48
2019-02-26T00:56:47.863Z,1.50
2019-02-26T00:57:19.083Z,1.50
2019-02-26T00:57:50.299Z,1.50
2019-02-26T00:58:21.547Z,1.52
2019-02-26T00:58:52.773Z,1.53
2019-02-26T00:59:23.989Z,1.52
2019-02-26T00:59:55.206Z,1.53
2019-02-26T01:00:28.424Z,1.54
2019-02-26T01:00:59.415Z,1.53
2019-02-26T01:01:30.624Z,1.56
2019-02-26T01:02:01.843Z,1.56
2019-02-26T01:02:33.054Z,1.58
2019-02-26T01:03:05.965Z,1.59
2019-02-26T01:03:37.251Z,1.59
2019-02-26T01:04:08.475Z,1.63
2019-02-26T01:04:41.455Z,1.63
2019-02-26T01:05:13.146Z,1.64
2019-02-26T01:05:45.618Z,1.65
2019-02-26T01:06:16.822Z,1.65
2019-02-26T01:06:48.035Z,1.66
2019-02-26T01:07:21.219Z,1.63
2019-02-26T01:07:54.236Z,1.63
2019-02-26T01:08:25.127Z,1.61
2019-02-26T01:08:56.374Z,1.60
2019-02-26T01:09:29.364Z,1.61
2019-02-26T01:10:00.515Z,1.63
2019-02-26T01:10:31.778Z,1.62
2019-02-26T01:11:03.933Z,1.64
2019-02-26T01:11:35.906Z,1.64
2019-02-26T01:12:09.008Z,1.64
2019-02-26T01:12:40.971Z,1.63
2019-02-26T01:13:12.964Z,1.61
2019-02-26T01:13:44.208Z,1.61
2019-02-26T01:14:15.869Z,1.61
2019-02-26T01:14:50.418Z,1.60
2019-02-26T01:15:21.622Z,1.60
2019-02-26T01:15:52.838Z,1.61
2019-02-26T01:16:24.042Z,1.62
2019-02-26T01:16:55.264Z,1.62
2019-02-26T01:17:26.477Z,1.62
2019-02-26T01:17:58.926Z,1.63
2019-02-26T01:18:30.622Z,1.64
2019-02-26T01:19:04.634Z,1.65
2019-02-26T01:19:36.940Z,1.65
2019-02-26T01:20:08.816Z,1.66
2019-02-26T01:20:40.055Z,1.66
2019-02-26T01:21:11.277Z,1.70
2019-02-26T01:21:42.477Z,1.71
2019-02-26T01:22:13.731Z,1.71
2019-02-26T01:22:45.565Z,1.75
2019-02-26T01:23:21.061Z,1.79
2019-02-26T01:23:49.829Z,1.82
2019-02-26T01:24:21.843Z,1.84
2019-02-26T01:24:54.278Z,1.85
2019-02-26T01:25:26.888Z,1.82
2019-02-26T01:25:58.092Z,1.82
2019-02-26T01:26:29.296Z,1.80
2019-02-26T01:27:00.491Z,1.79
2019-02-26T01:27:31.753Z,1.79
2019-02-26T01:28:02.981Z,1.83
2019-02-26T01:28:34.182Z,1.89
2019-02-26T01:29:05.542Z,1.97
2019-02-26T01:29:36.739Z,1.98
2019-02-26T01:30:07.939Z,2.04
2019-02-26T01:30:39.179Z,2.13
2019-02-26T01:31:10.396Z,2.14
2019-02-26T01:31:41.689Z,2.13
2019-02-26T01:32:13.802Z,2.08
2019-02-26T01:32:45.855Z,2.08
2019-02-26T01:33:17.069Z,2.06
2019-02-26T01:33:49.079Z,2.03
2019-02-26T01:34:21.250Z,2.02
2019-02-26T01:34:52.454Z,1.99
2019-02-26T01:35:23.680Z,1.98
2019-02-26T01:35:55.491Z,1.96
2019-02-26T01:36:27.871Z,1.92
2019-02-26T01:37:00.829Z,1.91
2019-02-26T01:37:34.289Z,1.92
2019-02-26T01:38:05.137Z,1.93
2019-02-26T01:38:39.508Z,1.90
2019-02-26T01:39:11.499Z,1.88
2019-02-26T01:39:43.017Z,1.86
2019-02-26T01:40:18.419Z,1.86
2019-02-26T01:40:51.093Z,1.88
2019-02-26T01:41:23.249Z,1.88
2019-02-26T01:41:56.256Z,1.87
2019-02-26T01:42:27.674Z,1.87
2019-02-26T01:43:02.589Z,1.85
2019-02-26T01:43:32.955Z,1.84
2019-02-26T01:44:04.181Z,1.86
2019-02-26T01:44:37.369Z,1.86
2019-02-26T01:45:08.335Z,1.86
2019-02-26T01:45:39.583Z,1.86
2019-02-26T01:46:11.698Z,1.84
2019-02-26T01:46:43.748Z,1.82
2019-02-26T01:47:17.062Z,1.81
2019-02-26T01:47:50.016Z,1.79
2019-02-26T01:48:20.848Z,1.79
2019-02-26T01:48:52.963Z,1.80
2019-02-26T01:49:26.609Z,1.85
2019-02-26T01:49:59.379Z,1.93
2019-02-26T01:50:33.239Z,2.01
2019-02-26T01:51:03.776Z,2.09
2019-02-26T01:51:34.972Z,2.17
2019-02-26T01:52:07.985Z,2.40
2019-02-26T01:52:39.104Z,2.45
2019-02-26T01:53:12.003Z,1.87
2019-02-26T01:53:46.419Z,2.52
2019-02-26T01:54:16.784Z,2.52
2019-02-26T01:54:48.119Z,2.49
2019-02-26T01:55:20.762Z,2.47
2019-02-26T01:55:52.287Z,2.45
2019-02-26T01:56:23.485Z,2.36
2019-02-26T01:56:54.701Z,2.26
2019-02-26T01:57:27.698Z,2.22
2019-02-26T01:57:59.318Z,2.13
2019-02-26T01:58:33.446Z,2.09
2019-02-26T01:59:03.609Z,2.03
2019-02-26T01:59:36.119Z,2.00
2019-02-26T02:00:07.320Z,2.00
2019-02-26T02:00:38.676Z,1.96
2019-02-26T02:01:14.036Z,1.90
2019-02-26T02:01:46.469Z,1.86
2019-02-26T02:02:20.087Z,1.88
2019-02-26T02:02:50.237Z,1.85
2019-02-26T02:03:23.020Z,1.84
2019-02-26T02:03:56.212Z,1.83
2019-02-26T02:04:27.380Z,1.81
2019-02-26T02:04:59.771Z,1.79
2019-02-26T02:05:31.571Z,1.79
2019-02-26T02:06:02.804Z,1.77
2019-02-26T02:06:34.926Z,1.76
2019-02-26T02:07:06.996Z,1.75
2019-02-26T02:07:38.194Z,1.76
2019-02-26T02:08:13.063Z,1.76
2019-02-26T02:08:45.880Z,1.74
2019-02-26T02:09:18.690Z,1.73
2019-02-26T02:09:51.352Z,1.73
2019-02-26T02:10:22.859Z,1.76
2019-02-26T02:10:56.533Z,1.79
2019-02-26T02:11:30.576Z,1.83
2019-02-26T02:12:02.039Z,1.84
2019-02-26T02:12:34.397Z,1.97
2019-02-26T02:13:07.154Z,2.11
2019-02-26T02:13:41.262Z,2.17
2019-02-26T02:14:12.752Z,2.14
2019-02-26T02:14:44.729Z,2.14
2019-02-26T02:15:18.830Z,2.23
2019-02-26T02:15:48.904Z,2.26
2019-02-26T02:16:19.935Z,2.22
2019-02-26T02:16:51.139Z,2.19
2019-02-26T02:17:22.348Z,2.11
2019-02-26T02:17:56.643Z,2.03
2019-02-26T02:18:28.121Z,2.00
2019-02-26T02:19:00.043Z,1.98
2019-02-26T02:19:32.630Z,2.02
2019-02-26T02:20:07.708Z,2.03
2019-02-26T02:20:36.830Z,2.03
2019-02-26T02:21:08.038Z,1.96
2019-02-26T02:21:39.249Z,1.92
2019-02-26T02:22:12.200Z,1.87
2019-02-26T02:22:44.413Z,1.86
2019-02-26T02:23:15.891Z,1.83
2019-02-26T02:23:49.211Z,1.86
2019-02-26T02:24:22.272Z,1.91
2019-02-26T02:24:53.975Z,1.95
2019-02-26T02:25:29.041Z,1.97
2019-02-26T02:26:02.143Z,2.11
2019-02-26T02:26:31.860Z,2.12
2019-02-26T02:27:03.068Z,2.15
2019-02-26T02:27:34.310Z,2.12
2019-02-26T02:28:05.500Z,2.06
2019-02-26T02:28:36.705Z,2.12
2019-02-26T02:29:07.921Z,2.22
2019-02-26T02:29:41.837Z,2.37
2019-02-26T02:30:18.517Z,2.44
2019-02-26T02:30:45.029Z,2.56
2019-02-26T02:31:16.302Z,2.66
2019-02-26T02:31:47.504Z,2.78
2019-02-26T02:32:20.972Z,2.80
2019-02-26T02:32:56.364Z,2.79
2019-02-26T02:33:26.762Z,2.76
2019-02-26T02:33:57.580Z,2.66
2019-02-26T02:34:29.591Z,2.58
2019-02-26T02:35:04.329Z,2.71
2019-02-26T02:35:34.714Z,2.76
2019-02-26T02:36:05.944Z,2.68
2019-02-26T02:36:37.155Z,2.62
2019-02-26T02:37:08.400Z,2.49
2019-02-26T02:37:39.603Z,2.54
2019-02-26T02:38:10.883Z,2.58
2019-02-26T02:38:42.117Z,2.55
2019-02-26T02:39:15.740Z,2.50
2019-02-26T02:39:46.292Z,2.36
2019-02-26T02:40:17.494Z,2.22
2019-02-26T02:40:51.188Z,2.03
2019-02-26T02:41:21.660Z,1.95
2019-02-26T02:41:54.914Z,1.92
2019-02-26T02:42:25.856Z,2.03
2019-02-26T02:42:57.080Z,2.16
2019-02-26T02:43:28.293Z,2.12
2019-02-26T02:43:59.576Z,2.04
2019-02-26T02:44:30.754Z,2.01
2019-02-26T02:45:01.970Z,1.98
2019-02-26T02:45:33.179Z,1.90
2019-02-26T02:46:04.395Z,1.83
2019-02-26T02:46:36.689Z,1.76
2019-02-26T02:47:09.337Z,1.68
2019-02-26T02:47:41.503Z,1.57
2019-02-26T02:48:14.194Z,1.56
2019-02-26T02:48:45.566Z,1.62
2019-02-26T02:49:17.966Z,1.70
2019-02-26T02:49:49.249Z,1.72
2019-02-26T02:50:20.465Z,1.73
2019-02-26T02:50:51.690Z,1.65
2019-02-26T02:51:22.915Z,1.58
2019-02-26T02:51:54.165Z,1.47
2019-02-26T02:52:27.065Z,1.42
2019-02-26T02:52:59.654Z,1.38
2019-02-26T02:53:32.341Z,1.28
2019-02-26T02:54:03.667Z,1.29
2019-02-26T02:54:34.892Z,1.29
2019-02-26T02:55:06.875Z,1.26
2019-02-26T02:55:44.261Z,1.22
2019-02-26T02:56:15.343Z,1.21
2019-02-26T02:56:47.194Z,1.14
2019-02-26T02:57:18.586Z,1.14
2019-02-26T02:57:52.658Z,1.35
2019-02-26T02:58:23.927Z,1.45
2019-02-26T02:58:55.657Z,1.52
2019-02-26T02:59:28.319Z,1.59
2019-02-26T03:00:02.629Z,1.59
2019-02-26T03:00:34.455Z,1.55
2019-02-26T03:01:05.788Z,1.59
2019-02-26T03:01:37.003Z,1.71
2019-02-26T03:02:09.408Z,1.77
2019-02-26T03:02:43.183Z,1.88
2019-02-26T03:03:14.172Z,2.02
2019-02-26T03:03:47.633Z,2.23
2019-02-26T03:04:19.781Z,2.31
2019-02-26T03:04:51.232Z,2.34
2019-02-26T03:05:22.442Z,2.24
2019-02-26T03:05:53.656Z,2.10
2019-02-26T03:06:27.310Z,2.00
2019-02-26T03:06:58.780Z,2.00
2019-02-26T03:07:30.786Z,1.89
2019-02-26T03:08:01.983Z,1.89
2019-02-26T03:08:33.181Z,1.86
2019-02-26T03:09:04.404Z,1.78
2019-02-26T03:09:37.723Z,1.68
2019-02-26T03:10:09.642Z,1.63
2019-02-26T03:10:43.095Z,1.57
2019-02-26T03:11:14.427Z,1.48
2019-02-26T03:11:46.467Z,1.48
2019-02-26T03:12:18.595Z,1.52
2019-02-26T03:12:53.790Z,1.53
2019-02-26T03:13:24.913Z,1.66
2019-02-26T03:13:55.762Z,1.75
2019-02-26T03:14:26.959Z,1.80
2019-02-26T03:14:59.861Z,1.79
2019-02-26T03:15:33.623Z,1.80
2019-02-26T03:16:04.075Z,1.73
2019-02-26T03:16:35.501Z,1.70
2019-02-26T03:17:09.081Z,1.66
2019-02-26T03:17:39.675Z,1.58
2019-02-26T03:18:12.523Z,1.60
2019-02-26T03:18:43.840Z,1.65
2019-02-26T03:19:16.931Z,1.71
2019-02-26T03:19:47.980Z,1.73
2019-02-26T03:20:19.180Z,1.81
2019-02-26T03:20:51.433Z,1.92
2019-02-26T03:21:24.764Z,1.92
2019-02-26T03:21:56.262Z,1.88
2019-02-26T03:22:27.536Z,1.89
2019-02-26T03:22:58.787Z,1.89
2019-02-26T03:23:31.308Z,1.90
2019-02-26T03:24:05.630Z,1.81
2019-02-26T03:24:35.996Z,1.82
2019-02-26T03:25:07.140Z,1.92
2019-02-26T03:25:38.356Z,2.02
2019-02-26T03:26:12.562Z,1.99
2019-02-26T03:26:42.503Z,2.00
2019-02-26T03:27:13.714Z,2.03
2019-02-26T03:27:44.953Z,1.99
2019-02-26T03:28:16.162Z,1.91
2019-02-26T03:28:48.150Z,1.77
2019-02-26T03:29:20.306Z,1.55
2019-02-26T03:29:52.541Z,1.50
2019-02-26T03:30:31.973Z,1.46
2019-02-26T03:30:57.464Z,1.43
2019-02-26T03:31:31.040Z,1.37
2019-02-26T03:32:01.615Z,1.42
2019-02-26T03:32:36.075Z,1.52
2019-02-26T03:33:05.751Z,1.52
2019-02-26T03:33:36.940Z,1.55
2019-02-26T03:34:10.597Z,1.49
2019-02-26T03:34:41.149Z,1.38
2019-02-26T03:35:13.224Z,1.36
2019-02-26T03:35:45.336Z,1.41
2019-02-26T03:36:17.183Z,1.47
2019-02-26T03:36:49.470Z,1.53
2019-02-26T03:37:20.688Z,1.63
2019-02-26T03:37:54.875Z,1.59
2019-02-26T03:38:26.965Z,1.46
2019-02-26T03:39:00.708Z,1.43
2019-02-26T03:39:30.710Z,1.42
2019-02-26T03:40:03.654Z,1.35
2019-02-26T03:40:36.149Z,1.30
2019-02-26T03:41:07.564Z,1.27
2019-02-26T03:41:38.805Z,1.31
2019-02-26T03:42:10.579Z,1.38
2019-02-26T03:42:43.465Z,1.42
2019-02-26T03:43:16.289Z,1.48
2019-02-26T03:43:47.652Z,1.67
2019-02-26T03:44:18.875Z,1.59
2019-02-26T03:44:50.127Z,1.51
2019-02-26T03:45:24.683Z,1.52
2019-02-26T03:45:54.312Z,1.55
2019-02-26T03:46:25.527Z,1.48
2019-02-26T03:46:56.752Z,1.36
2019-02-26T03:47:27.954Z,1.29
2019-02-26T03:47:59.215Z,1.23
2019-02-26T03:48:30.424Z,1.17
2019-02-26T03:49:02.727Z,1.10
2019-02-26T03:49:34.590Z,1.05
2019-02-26T03:50:08.528Z,1.01
2019-02-26T03:50:38.736Z,0.98
2019-02-26T03:51:10.006Z,0.96
2019-02-26T03:51:41.210Z,1.01
2019-02-26T03:52:15.316Z,0.18
2019-02-26T03:52:45.372Z,1.02
2019-02-26T03:53:16.752Z,1.00
2019-02-26T03:53:47.954Z,1.07
2019-02-26T03:54:19.161Z,1.29
2019-02-26T03:54:50.762Z,1.34
2019-02-26T03:55:22.064Z,1.31
2019-02-26T03:55:53.263Z,1.34
2019-02-26T03:56:24.474Z,1.44
2019-02-26T03:56:55.679Z,1.50
2019-02-26T03:57:26.882Z,1.57
2019-02-26T03:58:01.426Z,1.68
2019-02-26T03:58:31.071Z,1.67
2019-02-26T03:59:05.756Z,1.60
2019-02-26T03:59:35.218Z,1.62
2019-02-26T04:00:08.779Z,1.58
2019-02-26T04:00:41.714Z,1.52
2019-02-26T04:01:13.653Z,1.53
2019-02-26T04:01:45.277Z,1.52
2019-02-26T04:02:18.110Z,1.44
2019-02-26T04:02:51.813Z,1.36
2019-02-26T04:03:22.356Z,1.35
2019-02-26T04:03:54.655Z,1.34
2019-02-26T04:04:30.448Z,1.26
2019-02-26T04:05:02.242Z,1.22
2019-02-26T04:05:32.392Z,1.16
2019-02-26T04:06:06.685Z,1.09
2019-02-26T04:06:38.431Z,1.03
2019-02-26T04:07:10.661Z,0.92
2019-02-26T04:07:41.936Z,0.94
2019-02-26T04:08:13.269Z,0.89
2019-02-26T04:08:46.029Z,0.85
2019-02-26T04:09:19.607Z,0.78
2019-02-26T04:09:53.122Z,0.71
2019-02-26T04:10:23.364Z,0.66
2019-02-26T04:10:55.958Z,0.63
2019-02-26T04:11:27.850Z,0.62
2019-02-26T04:11:59.090Z,0.61
2019-02-26T04:12:30.316Z,0.59
2019-02-26T04:13:01.557Z,0.58
2019-02-26T04:13:32.807Z,0.56
2019-02-26T04:14:04.032Z,0.51
2019-02-26T04:14:35.275Z,0.51
2019-02-26T04:15:06.459Z,0.52
2019-02-26T04:15:38.779Z,0.51
2019-02-26T04:16:09.962Z,0.53
2019-02-26T04:16:43.613Z,0.61
2019-02-26T04:17:14.125Z,0.66
2019-02-26T04:17:45.340Z,0.84
2019-02-26T04:18:18.467Z,0.78
2019-02-26T04:18:51.959Z,0.73
2019-02-26T04:19:26.138Z,0.65
2019-02-26T04:19:55.587Z,0.62
2019-02-26T04:20:27.866Z,0.62
2019-02-26T04:21:03.208Z,0.59
2019-02-26T04:21:32.175Z,0.62
2019-02-26T04:22:03.380Z,0.62
2019-02-26T04:22:34.630Z,0.56
2019-02-26T04:23:05.824Z,0.54
2019-02-26T04:23:38.943Z,0.50
2019-02-26T04:24:11.425Z,0.42
2019-02-26T04:24:42.705Z,0.41
2019-02-26T04:25:13.915Z,0.41
2019-02-26T04:25:45.144Z,0.37
2019-02-26T04:26:20.872Z,0.35
2019-02-26T04:26:49.268Z,0.29
2019-02-26T04:27:20.498Z,0.27
2019-02-26T04:27:51.710Z,0.25
2019-02-26T04:28:27.365Z,0.25
2019-02-26T04:28:57.309Z,0.25
2019-02-26T04:29:28.759Z,0.29
2019-02-26T04:29:59.989Z,0.30
2019-02-26T04:30:36.608Z,0.34
2019-02-26T04:31:04.177Z,0.37
2019-02-26T04:31:35.387Z,0.37
2019-02-26T04:32:06.629Z,0.39
2019-02-26T04:32:40.750Z,0.39
2019-02-26T04:33:11.650Z,0.39
2019-02-26T04:33:43.713Z,0.35
2019-02-26T04:34:14.967Z,0.31
2019-02-26T04:34:46.206Z,0.30
2019-02-26T04:35:17.411Z,0.29
2019-02-26T04:35:50.128Z,0.29
2019-02-26T04:36:22.373Z,0.27
2019-02-26T04:36:53.739Z,0.25
2019-02-26T04:37:27.263Z,0.27
2019-02-26T04:37:59.061Z,0.25
2019-02-26T04:38:31.143Z,0.22
2019-02-26T04:39:02.577Z,0.19
2019-02-26T04:39:34.436Z,0.21
2019-02-26T04:40:10.180Z,0.20
2019-02-26T04:40:40.953Z,0.19
2019-02-26T04:41:15.719Z,0.18
2019-02-26T04:41:45.223Z,0.17
2019-02-26T04:42:18.188Z,0.19
2019-02-26T04:42:49.452Z,0.22
2019-02-26T04:43:20.665Z,0.24
2019-02-26T04:43:54.562Z,0.26
2019-02-26T04:44:26.868Z,0.24
2019-02-26T04:45:00.519Z,0.30
2019-02-26T04:45:30.710Z,0.32
2019-02-26T04:46:04.947Z,0.31
2019-02-26T04:46:36.903Z,0.35
2019-02-26T04:47:07.840Z,0.40
2019-02-26T04:47:40.748Z,0.47
2019-02-26T04:48:14.709Z,0.78
2019-02-26T04:48:44.917Z,0.87
2019-02-26T04:49:16.158Z,0.84
2019-02-26T04:49:47.470Z,0.78
2019-02-26T04:50:22.987Z,0.74
2019-02-26T04:50:51.641Z,0.71
2019-02-26T04:51:22.863Z,0.73
2019-02-26T04:51:54.076Z,0.75
2019-02-26T04:52:25.294Z,0.70
2019-02-26T04:52:59.741Z,0.70
2019-02-26T04:53:31.312Z,0.70
2019-02-26T04:54:02.402Z,0.70
2019-02-26T04:54:35.927Z,0.69
2019-02-26T04:55:06.539Z,0.66
2019-02-26T04:55:41.384Z,0.68
2019-02-26T04:56:12.796Z,0.68
2019-02-26T04:56:45.108Z,0.74
2019-02-26T04:57:16.707Z,0.72
2019-02-26T04:57:50.607Z,0.74
2019-02-26T04:58:22.684Z,0.87
2019-02-26T04:58:54.000Z,1.06
2019-02-26T04:59:25.335Z,1.08
2019-02-26T04:59:59.163Z,1.08
2019-02-26T05:00:32.186Z,1.07
2019-02-26T05:01:04.231Z,1.02
2019-02-26T05:01:35.394Z,1.04
2019-02-26T05:02:06.593Z,1.12
2019-02-26T05:02:37.851Z,1.12
2019-02-26T05:03:11.819Z,1.16
2019-02-26T05:03:41.992Z,1.21
2019-02-26T05:04:13.206Z,1.15
2019-02-26T05:04:44.437Z,1.13
2019-02-26T05:05:15.663Z,1.19
2019-02-26T05:05:51.404Z,1.29
2019-02-26T05:06:19.802Z,1.25
2019-02-26T05:06:51.038Z,1.15
2019-02-26T05:07:22.245Z,1.14
2019-02-26T05:07:53.500Z,1.07
2019-02-26T05:08:24.740Z,1.11
2019-02-26T05:08:59.330Z,1.06
2019-02-26T05:09:30.598Z,1.02
2019-02-26T05:10:02.315Z,0.97
2019-02-26T05:10:35.760Z,0.88
2019-02-26T05:11:06.994Z,0.81
2019-02-26T05:11:40.655Z,0.76
2019-02-26T05:12:11.141Z,0.72
2019-02-26T05:12:42.337Z,0.68
2019-02-26T05:13:13.576Z,0.66
2019-02-26T05:13:44.804Z,0.62
2019-02-26T05:14:21.006Z,0.62
2019-02-26T05:14:48.958Z,0.63
2019-02-26T05:15:22.663Z,0.63
2019-02-26T05:15:53.185Z,0.65
2019-02-26T05:16:28.538Z,0.68
2019-02-26T05:16:57.323Z,0.74
2019-02-26T05:17:30.787Z,0.83
2019-02-26T05:18:01.453Z,0.92
2019-02-26T05:18:34.517Z,1.04
2019-02-26T05:19:05.644Z,1.14
2019-02-26T05:19:39.249Z,1.22
2019-02-26T05:20:12.857Z,1.26
2019-02-26T05:20:47.220Z,1.37
2019-02-26T05:21:15.699Z,1.47
2019-02-26T05:21:46.887Z,1.56
2019-02-26T05:22:19.828Z,1.73
2019-02-26T05:22:52.058Z,1.85
2019-02-26T05:23:25.905Z,1.90
2019-02-26T05:23:57.671Z,1.96
2019-02-26T05:24:29.840Z,2.03
2019-02-26T05:25:01.057Z,1.98
2019-02-26T05:25:34.394Z,1.95
2019-02-26T05:26:08.097Z,1.97
2019-02-26T05:26:38.230Z,1.98
2019-02-26T05:27:11.831Z,1.97
2019-02-26T05:27:45.226Z,2.12
2019-02-26T05:28:17.488Z,2.26
2019-02-26T05:28:49.721Z,2.29
2019-02-26T05:29:21.255Z,2.22
2019-02-26T05:29:54.754Z,2.09
2019-02-26T05:30:25.383Z,2.03
2019-02-26T05:30:56.618Z,1.95
2019-02-26T05:31:29.618Z,1.91
2019-02-26T05:32:03.597Z,1.89
2019-02-26T05:32:35.517Z,1.79
2019-02-26T05:33:06.702Z,1.79
2019-02-26T05:33:37.967Z,1.75
2019-02-26T05:34:09.187Z,1.69
2019-02-26T05:34:42.785Z,1.60
2019-02-26T05:35:14.494Z,1.58
2019-02-26T05:35:48.863Z,1.61
2019-02-26T05:36:19.267Z,1.64
2019-02-26T05:36:50.482Z,1.70
2019-02-26T05:37:21.723Z,1.74
2019-02-26T05:37:55.497Z,1.75
2019-02-26T05:38:26.571Z,1.77
2019-02-26T05:39:00.347Z,1.79
2019-02-26T05:39:31.898Z,1.80
2019-02-26T05:40:03.108Z,1.80
2019-02-26T05:40:37.484Z,1.77
2019-02-26T05:41:07.289Z,1.77
2019-02-26T05:41:40.362Z,1.83
2019-02-26T05:42:11.417Z,1.82
2019-02-26T05:42:42.679Z,1.81
2019-02-26T05:43:13.912Z,1.81
2019-02-26T05:43:49.450Z,1.86
2019-02-26T05:44:18.088Z,1.84
2019-02-26T05:44:53.763Z,1.86
2019-02-26T05:45:23.829Z,1.89
2019-02-26T05:45:58.106Z,2.00
2019-02-26T05:46:29.510Z,2.07
2019-02-26T05:47:01.714Z,2.09
2019-02-26T05:47:33.030Z,2.10
2019-02-26T05:48:04.271Z,2.03
2019-02-26T05:48:37.233Z,2.00
2019-02-26T05:49:12.526Z,1.94
2019-02-26T05:49:43.399Z,1.88
2019-02-26T05:50:16.750Z,1.89
2019-02-26T05:50:47.367Z,1.85
2019-02-26T05:51:18.636Z,1.86
2019-02-26T05:51:49.847Z,1.84
2019-02-26T05:52:21.925Z,1.76
2019-02-26T05:52:58.020Z,1.74
2019-02-26T05:53:27.035Z,1.77
2019-02-26T05:54:01.768Z,1.81
2019-02-26T05:54:31.202Z,1.91
2019-02-26T05:55:02.399Z,2.03
2019-02-26T05:55:33.616Z,1.98
2019-02-26T05:56:04.820Z,1.95
2019-02-26T05:56:37.222Z,1.90
2019-02-26T05:57:15.310Z,1.88
2019-02-26T05:57:42.088Z,2.08
2019-02-26T05:58:15.815Z,2.02
2019-02-26T05:58:46.989Z,1.93
2019-02-26T05:59:21.308Z,1.84
2019-02-26T05:59:51.317Z,1.99
2019-02-26T06:00:25.533Z,1.93
2019-02-26T06:00:55.495Z,1.93
2019-02-26T06:01:27.818Z,2.01
2019-02-26T06:01:59.130Z,2.04
2019-02-26T06:02:30.343Z,2.00
2019-02-26T06:03:03.070Z,1.92
2019-02-26T06:03:34.509Z,1.90
2019-02-26T06:04:07.669Z,1.92
2019-02-26T06:04:41.027Z,1.92
2019-02-26T06:05:12.331Z,1.95
2019-02-26T06:05:46.517Z,1.97
2019-02-26T06:06:17.477Z,1.99
2019-02-26T06:06:51.071Z,2.03
2019-02-26T06:07:24.210Z,2.06
2019-02-26T06:07:54.644Z,2.05
2019-02-26T06:08:29.412Z,2.06
2019-02-26T06:08:59.865Z,2.13
2019-02-26T06:09:33.779Z,2.25
2019-02-26T06:10:04.757Z,2.23
2019-02-26T06:10:35.967Z,2.19
2019-02-26T06:11:07.184Z,2.15
2019-02-26T06:11:40.006Z,2.25
2019-02-26T06:12:11.448Z,2.35
2019-02-26T06:12:44.639Z,2.42
2019-02-26T06:13:15.842Z,2.52
2019-02-26T06:13:47.044Z,2.56
2019-02-26T06:14:18.255Z,2.57
2019-02-26T06:14:51.365Z,2.56
2019-02-26T06:15:23.113Z,2.54
2019-02-26T06:15:58.639Z,2.64
2019-02-26T06:16:29.052Z,2.79
2019-02-26T06:17:01.256Z,2.81
2019-02-26T06:17:32.519Z,2.78
2019-02-26T06:18:03.770Z,2.82
2019-02-26T06:18:34.994Z,2.87
2019-02-26T06:19:08.306Z,3.12
2019-02-26T06:19:40.227Z,3.17
2019-02-26T06:20:12.121Z,3.18
2019-02-26T06:20:43.337Z,3.20
2019-02-26T06:21:16.523Z,3.33
2019-02-26T06:21:49.720Z,3.50
2019-02-26T06:22:23.285Z,3.54
2019-02-26T06:22:53.423Z,3.58
2019-02-26T06:23:25.527Z,3.71
2019-02-26T06:23:57.563Z,3.72
2019-02-26T06:24:29.713Z,3.68
2019-02-26T06:25:04.067Z,3.62
2019-02-26T06:25:36.857Z,3.54
2019-02-26T06:26:13.200Z,3.43
2019-02-26T06:26:43.026Z,3.44
2019-02-26T06:27:18.277Z,3.50
2019-02-26T06:27:46.996Z,3.63
2019-02-26T06:28:20.444Z,3.78
2019-02-26T06:28:52.830Z,3.91
2019-02-26T06:29:24.760Z,3.87
2019-02-26T06:29:58.131Z,3.72
2019-02-26T06:30:30.173Z,3.67
2019-02-26T06:31:01.420Z,3.79
2019-02-26T06:31:32.659Z,4.00
2019-02-26T06:32:05.311Z,4.13
2019-02-26T06:32:39.151Z,4.29
2019-02-26T06:33:11.616Z,4.47
2019-02-26T06:33:43.715Z,4.55
2019-02-26T06:34:16.349Z,4.62
2019-02-26T06:34:48.686Z,4.61
2019-02-26T06:35:19.954Z,4.73
2019-02-26T06:35:51.191Z,4.73
2019-02-26T06:36:23.474Z,4.53
2019-02-26T06:36:55.401Z,4.28
2019-02-26T06:37:28.562Z,4.27
2019-02-26T06:38:01.971Z,4.30
2019-02-26T06:38:33.286Z,4.39
2019-02-26T06:39:06.008Z,4.69
2019-02-26T06:39:37.420Z,4.99
2019-02-26T06:40:08.629Z,5.16
2019-02-26T06:40:41.781Z,5.18
2019-02-26T06:41:12.815Z,5.19
2019-02-26T06:41:45.003Z,5.22
2019-02-26T06:42:17.016Z,5.22
2019-02-26T06:42:48.279Z,5.31
2019-02-26T06:43:19.500Z,5.46
2019-02-26T06:43:52.498Z,5.57
2019-02-26T06:44:23.680Z,5.45
2019-02-26T06:44:55.026Z,5.26
2019-02-26T06:45:26.284Z,5.13
2019-02-26T06:45:57.508Z,4.96
2019-02-26T06:46:29.446Z,4.82
2019-02-26T06:47:02.630Z,4.74
2019-02-26T06:47:34.617Z,4.56
2019-02-26T06:48:05.892Z,4.58
2019-02-26T06:48:37.115Z,4.84
2019-02-26T06:49:08.317Z,5.11
2019-02-26T06:49:41.418Z,5.09
2019-02-26T06:50:13.241Z,5.15
2019-02-26T06:50:45.471Z,5.26
2019-02-26T06:51:16.683Z,5.32
2019-02-26T06:51:49.785Z,5.40
2019-02-26T06:52:20.843Z,5.71
2019-02-26T06:52:52.091Z,5.93
2019-02-26T06:53:23.314Z,5.91
2019-02-26T06:53:56.504Z,5.95
2019-02-26T06:54:29.141Z,6.08
2019-02-26T06:55:02.881Z,6.17
2019-02-26T06:55:33.355Z,6.14
2019-02-26T06:56:04.550Z,5.94
2019-02-26T06:56:41.251Z,5.75
2019-02-26T06:57:08.741Z,5.55
2019-02-26T06:57:41.398Z,5.31
2019-02-26T06:58:12.968Z,5.27
2019-02-26T06:58:45.041Z,5.29
2019-02-26T06:59:16.936Z,5.27
2019-02-26T06:59:48.151Z,5.15
2019-02-26T07:00:21.775Z,4.81
2019-02-26T07:00:55.235Z,4.66
2019-02-26T07:01:25.277Z,4.58
2019-02-26T07:01:56.571Z,4.46
2019-02-26T07:02:29.035Z,4.34
2019-02-26T07:03:02.642Z,4.25
2019-02-26T07:03:33.265Z,4.24
2019-02-26T07:04:04.478Z,4.25
2019-02-26T07:04:35.702Z,4.27
2019-02-26T07:05:06.997Z,4.34
2019-02-26T07:05:38.201Z,4.32
2019-02-26T07:06:09.441Z,4.23